Time;durP1;ratioP1;P1;durP2;ratioP2;P2;SDS_P1;SDS_P2;PMS_P1;PMS_P2;Temp;Humidity;BMP_temperature;BMP_pressure;BME280_temperature;BME280_humidity;BME280_pressure;Samples;Min_cycle;Max_cycle;Signal;HPM_P1;HPM_P2
2022/10/22 00:01:46;;;;;;;19.85;14.85;;;;;;;;;;6303363;28;20052;-68
2022/10/22 00:04:48;;;;;;;19.40;14.37;;;;;;;;;;6297829;28;20052;-69
2022/10/22 00:07:50;;;;;;;21.50;14.20;;;;;;;;;;6310732;28;20486;-69
2022/10/22 00:10:52;;;;;;;18.20;13.23;;;;;;;;;;6310161;28;20093;-70
2022/10/22 00:13:53;;;;;;;19.55;13.25;;;;;;;;;;6303749;28;20115;-69
2022/10/22 00:16:59;;;;;;;21.38;14.02;;;;;;;;;;6305487;28;20055;-69
2022/10/22 00:20:01;;;;;;;18.33;14.32;;;;;;;;;;6302166;28;20048;-67
2022/10/22 00:23:03;;;;;;;22.77;14.95;;;;;;;;;;6309419;28;20120;-68
2022/10/22 00:26:05;;;;;;;19.33;14.07;;;;;;;;;;6301253;28;20051;-70
2022/10/22 00:29:06;;;;;;;23.58;13.98;;;;;;;;;;6300334;28;20059;-70
2022/10/22 00:32:09;;;;;;;21.80;15.13;;;;;;;;;;6299703;28;20298;-70
2022/10/22 00:35:11;;;;;;;18.10;13.85;;;;;;;;;;6305076;28;20071;-69
2022/10/22 00:38:13;;;;;;;21.15;14.35;;;;;;;;;;6306767;28;20052;-68
2022/10/22 00:41:14;;;;;;;25.30;13.75;;;;;;;;;;6312708;28;20046;-71
2022/10/22 00:44:54;;;;;;;20.08;14.93;;;;;;;;;;6304496;28;20052;-69
2022/10/22 00:48:00;;;;;;;21.30;13.88;;;;;;;;;;6308107;28;20113;-69
2022/10/22 00:51:04;;;;;;;20.05;13.65;;;;;;;;;;6307500;28;20059;-69
2022/10/22 00:54:08;;;;;;;19.27;14.00;;;;;;;;;;6307850;28;20094;-69
2022/10/22 00:57:10;;;;;;;19.38;13.52;;;;;;;;;;6311568;28;20292;-69
2022/10/22 01:00:13;;;;;;;20.75;14.65;;;;;;;;;;6305655;28;20053;-69
2022/10/22 01:03:16;;;;;;;21.63;14.30;;;;;;;;;;6310676;28;20040;-69
2022/10/22 01:06:24;;;;;;;18.73;13.98;;;;;;;;;;6307062;28;20125;-69
2022/10/22 01:09:31;;;;;;;20.52;14.40;;;;;;;;;;6308571;28;20045;-69
2022/10/22 01:12:43;;;;;;;20.13;15.02;;;;;;;;;;6314657;28;20048;-69
2022/10/22 01:15:51;;;;;;;23.08;13.88;;;;;;;;;;6308383;28;20052;-69
2022/10/22 01:19:01;;;;;;;18.13;13.10;;;;;;;;;;6308631;28;20098;-69
2022/10/22 01:22:08;;;;;;;17.45;13.20;;;;;;;;;;6307118;28;20056;-69
2022/10/22 01:25:15;;;;;;;20.80;13.40;;;;;;;;;;6309249;28;20105;-69
2022/10/22 01:28:23;;;;;;;20.67;13.45;;;;;;;;;;6307849;28;20056;-69
2022/10/22 01:31:30;;;;;;;19.40;13.25;;;;;;;;;;6300226;28;20098;-69
2022/10/22 01:34:32;;;;;;;21.15;13.98;;;;;;;;;;6311591;28;20244;-68
2022/10/22 01:37:37;;;;;;;19.63;13.57;;;;;;;;;;6311041;28;20052;-70
2022/10/22 01:40:39;;;;;;;18.23;13.50;;;;;;;;;;6308628;28;20044;-69
2022/10/22 01:43:41;;;;;;;19.98;13.80;;;;;;;;;;6309072;28;20055;-70
2022/10/22 01:46:46;;;;;;;17.30;13.25;;;;;;;;;;6309383;28;20275;-68
2022/10/22 01:50:15;;;;;;;19.98;13.27;;;;;;;;;;6307556;28;20112;-70
2022/10/22 01:53:27;;;;;;;21.38;13.05;;;;;;;;;;6304312;28;20106;-67
2022/10/22 01:56:40;;;;;;;16.05;12.95;;;;;;;;;;6305161;28;20277;-68
2022/10/22 01:59:50;;;;;;;19.98;13.35;;;;;;;;;;6310433;28;20056;-69
2022/10/22 02:02:59;;;;;;;18.52;12.55;;;;;;;;;;6307397;28;20048;-68
2022/10/22 02:06:04;;;;;;;16.80;12.93;;;;;;;;;;6308405;28;20047;-68
2022/10/22 02:09:07;;;;;;;16.67;12.77;;;;;;;;;;6305820;28;20086;-69
2022/10/22 02:12:09;;;;;;;20.67;13.75;;;;;;;;;;6309362;28;20052;-69
2022/10/22 02:15:12;;;;;;;18.90;13.00;;;;;;;;;;6308739;28;20044;-69
2022/10/22 02:18:17;;;;;;;21.35;13.00;;;;;;;;;;6317425;28;20058;-68
2022/10/22 02:21:19;;;;;;;17.13;12.23;;;;;;;;;;6308596;28;20082;-69
2022/10/22 02:24:21;;;;;;;16.70;12.07;;;;;;;;;;6307642;28;20104;-68
2022/10/22 02:27:27;;;;;;;19.02;13.30;;;;;;;;;;6316918;28;20445;-69
2022/10/22 02:30:28;;;;;;;15.52;11.95;;;;;;;;;;6302773;28;20329;-68
2022/10/22 02:33:34;;;;;;;18.00;12.27;;;;;;;;;;6310687;28;20056;-69
2022/10/22 02:36:36;;;;;;;17.85;11.77;;;;;;;;;;6307603;28;20145;-70
2022/10/22 02:39:39;;;;;;;17.77;12.60;;;;;;;;;;6304022;28;20110;-68
2022/10/22 02:42:42;;;;;;;15.60;11.73;;;;;;;;;;6305519;28;20090;-70
2022/10/22 02:45:43;;;;;;;16.35;12.27;;;;;;;;;;6307602;28;20066;-69
2022/10/22 02:48:46;;;;;;;20.95;12.50;;;;;;;;;;6307064;28;20052;-69
2022/10/22 02:51:48;;;;;;;18.98;12.80;;;;;;;;;;6306964;28;20120;-68
2022/10/22 02:54:50;;;;;;;15.77;12.43;;;;;;;;;;6309797;28;20048;-69
2022/10/22 02:57:52;;;;;;;17.05;13.00;;;;;;;;;;6305747;28;20150;-69
2022/10/22 03:00:53;;;;;;;18.00;12.55;;;;;;;;;;6307328;28;20085;-69
2022/10/22 03:03:56;;;;;;;20.48;12.02;;;;;;;;;;6306762;28;20060;-68
2022/10/22 03:06:58;;;;;;;19.17;12.87;;;;;;;;;;6302784;28;20109;-68
2022/10/22 03:09:59;;;;;;;18.02;12.77;;;;;;;;;;6301664;28;20098;-67
2022/10/22 03:13:01;;;;;;;16.83;12.32;;;;;;;;;;6297278;28;20060;-69
2022/10/22 03:16:03;;;;;;;15.20;11.77;;;;;;;;;;6303800;28;20106;-68
2022/10/22 03:19:06;;;;;;;18.50;12.77;;;;;;;;;;6309536;28;20041;-69
2022/10/22 03:22:10;;;;;;;16.42;12.88;;;;;;;;;;6305609;28;20044;-68
2022/10/22 03:25:14;;;;;;;16.70;11.90;;;;;;;;;;6307685;28;20366;-68
2022/10/22 03:28:17;;;;;;;15.75;12.80;;;;;;;;;;6297778;28;20045;-69
2022/10/22 03:31:18;;;;;;;19.45;12.50;;;;;;;;;;6303335;28;20052;-69
2022/10/22 03:34:22;;;;;;;18.60;12.88;;;;;;;;;;6300416;28;20052;-71
2022/10/22 03:37:24;;;;;;;15.82;11.80;;;;;;;;;;6303417;28;20063;-68
2022/10/22 03:40:26;;;;;;;16.60;12.43;;;;;;;;;;6301602;28;20086;-70
2022/10/22 03:43:27;;;;;;;17.13;12.30;;;;;;;;;;6306550;28;20267;-72
2022/10/22 03:46:29;;;;;;;18.08;12.30;;;;;;;;;;6303987;28;20060;-70
2022/10/22 03:49:32;;;;;;;18.02;12.45;;;;;;;;;;6301846;28;20052;-72
2022/10/22 03:52:36;;;;;;;19.08;12.68;;;;;;;;;;6299179;28;20056;-71
2022/10/22 03:55:38;;;;;;;16.30;12.05;;;;;;;;;;6304022;28;20512;-69
2022/10/22 03:58:41;;;;;;;18.75;12.98;;;;;;;;;;6307555;28;20056;-70
2022/10/22 04:01:42;;;;;;;16.48;13.05;;;;;;;;;;6300530;28;20064;-71
2022/10/22 04:04:45;;;;;;;18.70;13.40;;;;;;;;;;6308253;28;21167;-73
2022/10/22 04:07:47;;;;;;;18.50;12.67;;;;;;;;;;6302793;28;20051;-75
2022/10/22 04:10:51;;;;;;;16.13;12.90;;;;;;;;;;6304568;28;20458;-69
2022/10/22 04:13:52;;;;;;;14.75;11.52;;;;;;;;;;6305072;28;20119;-71
2022/10/22 04:16:54;;;;;;;15.60;12.35;;;;;;;;;;6305468;28;20058;-70
2022/10/22 04:19:57;;;;;;;18.27;12.32;;;;;;;;;;6304370;28;20102;-69
2022/10/22 04:22:59;;;;;;;21.80;12.97;;;;;;;;;;6300173;28;20080;-68
2022/10/22 04:26:02;;;;;;;18.58;13.35;;;;;;;;;;6301511;28;20478;-69
2022/10/22 04:29:03;;;;;;;19.73;12.95;;;;;;;;;;6305806;28;20437;-69
2022/10/22 04:32:05;;;;;;;21.58;13.07;;;;;;;;;;6299926;28;20371;-70
2022/10/22 04:35:08;;;;;;;19.75;13.43;;;;;;;;;;6301419;28;20059;-70
2022/10/22 04:38:10;;;;;;;18.92;13.10;;;;;;;;;;6305838;28;20098;-69
2022/10/22 04:41:14;;;;;;;16.85;12.75;;;;;;;;;;6304531;28;20102;-69
2022/10/22 04:44:16;;;;;;;18.20;13.23;;;;;;;;;;6304375;28;20283;-69
2022/10/22 04:47:17;;;;;;;17.23;12.85;;;;;;;;;;6305680;28;20090;-69
2022/10/22 04:50:20;;;;;;;19.00;12.57;;;;;;;;;;6306768;28;20085;-71
2022/10/22 04:53:22;;;;;;;18.45;12.90;;;;;;;;;;6302566;28;20057;-69
2022/10/22 04:56:26;;;;;;;18.05;13.40;;;;;;;;;;6301318;28;20048;-70
2022/10/22 04:59:27;;;;;;;16.95;12.35;;;;;;;;;;6303690;28;20267;-70
2022/10/22 05:02:29;;;;;;;16.83;12.48;;;;;;;;;;6304193;28;20098;-69
2022/10/22 05:05:32;;;;;;;19.00;11.63;;;;;;;;;;6300419;28;20102;-69
2022/10/22 05:08:34;;;;;;;18.52;13.15;;;;;;;;;;6298358;28;20064;-70
2022/10/22 05:11:36;;;;;;;14.70;12.30;;;;;;;;;;6303297;28;20093;-70
2022/10/22 05:14:38;;;;;;;16.67;12.90;;;;;;;;;;6301654;28;20044;-70
2022/10/22 05:17:40;;;;;;;17.85;13.48;;;;;;;;;;6304905;28;20270;-70
2022/10/22 05:20:43;;;;;;;18.20;12.55;;;;;;;;;;6305481;28;20105;-70
2022/10/22 05:23:45;;;;;;;18.93;12.40;;;;;;;;;;6309958;28;20244;-70
2022/10/22 05:26:49;;;;;;;17.63;12.25;;;;;;;;;;6310119;28;20845;-70
2022/10/22 05:29:50;;;;;;;17.58;13.13;;;;;;;;;;6305151;28;20053;-70
2022/10/22 05:32:52;;;;;;;20.98;13.95;;;;;;;;;;6304151;28;20048;-70
2022/10/22 05:35:55;;;;;;;17.98;13.40;;;;;;;;;;6303876;28;20064;-70
2022/10/22 05:38:57;;;;;;;17.25;12.32;;;;;;;;;;6306619;28;20336;-70
2022/10/22 05:41:58;;;;;;;18.50;12.77;;;;;;;;;;6305331;28;20052;-70
2022/10/22 05:45:00;;;;;;;17.30;12.70;;;;;;;;;;6307241;28;20055;-71
2022/10/22 05:48:01;;;;;;;16.92;13.45;;;;;;;;;;6304089;28;20064;-69
2022/10/22 05:51:06;;;;;;;18.92;13.40;;;;;;;;;;6305619;28;20340;-69
2022/10/22 05:54:09;;;;;;;17.02;13.30;;;;;;;;;;6305024;28;20564;-70
2022/10/22 05:57:11;;;;;;;15.57;11.70;;;;;;;;;;6307205;28;20374;-70
2022/10/22 06:00:13;;;;;;;18.40;13.23;;;;;;;;;;6306225;28;20401;-70
2022/10/22 06:03:15;;;;;;;17.30;13.43;;;;;;;;;;6305030;28;20059;-70
2022/10/22 06:06:21;;;;;;;21.27;13.10;;;;;;;;;;6307565;28;20090;-70
2022/10/22 06:09:24;;;;;;;18.48;13.15;;;;;;;;;;6305183;28;20044;-70
2022/10/22 06:12:26;;;;;;;19.23;13.68;;;;;;;;;;6305255;28;20056;-70
2022/10/22 06:15:28;;;;;;;16.63;12.15;;;;;;;;;;6306891;28;20074;-69
2022/10/22 06:18:29;;;;;;;20.38;13.07;;;;;;;;;;6307125;28;20094;-71
2022/10/22 06:21:32;;;;;;;17.88;11.98;;;;;;;;;;6306394;28;20084;-69
2022/10/22 06:24:34;;;;;;;19.13;12.38;;;;;;;;;;6304657;28;20040;-71
2022/10/22 06:27:36;;;;;;;16.00;12.15;;;;;;;;;;6305982;28;20052;-72
2022/10/22 06:30:37;;;;;;;18.20;11.93;;;;;;;;;;6307361;28;20098;-73
2022/10/22 06:33:41;;;;;;;16.48;11.52;;;;;;;;;;6306747;28;20052;-71
2022/10/22 06:36:44;;;;;;;17.77;11.57;;;;;;;;;;6305290;28;20056;-72
2022/10/22 06:39:45;;;;;;;18.95;12.23;;;;;;;;;;6304624;28;20229;-72
2022/10/22 06:42:47;;;;;;;16.60;12.55;;;;;;;;;;6303946;28;20048;-71
2022/10/22 06:45:48;;;;;;;20.63;12.88;;;;;;;;;;6306237;28;20102;-72
2022/10/22 06:48:51;;;;;;;16.42;11.23;;;;;;;;;;6299539;28;20060;-70
2022/10/22 06:51:54;;;;;;;17.05;11.95;;;;;;;;;;6308955;28;20218;-73
2022/10/22 06:54:56;;;;;;;19.02;12.20;;;;;;;;;;6305331;28;20052;-72
2022/10/22 06:57:58;;;;;;;16.63;11.65;;;;;;;;;;6305295;28;20094;-69
2022/10/22 07:01:03;;;;;;;16.85;12.10;;;;;;;;;;6303045;28;20044;-70
2022/10/22 07:04:05;;;;;;;14.13;11.48;;;;;;;;;;6304087;28;20279;-70
2022/10/22 07:07:08;;;;;;;15.98;11.52;;;;;;;;;;6304588;28;20071;-69
2022/10/22 07:10:10;;;;;;;17.85;11.80;;;;;;;;;;6307773;28;20064;-69
2022/10/22 07:13:12;;;;;;;16.75;12.10;;;;;;;;;;6311827;28;20068;-68
2022/10/22 07:16:13;;;;;;;15.38;11.45;;;;;;;;;;6306506;28;20316;-69
2022/10/22 07:19:15;;;;;;;16.58;12.10;;;;;;;;;;6307444;28;20129;-69
2022/10/22 07:22:18;;;;;;;16.05;12.10;;;;;;;;;;6305462;28;20087;-69
2022/10/22 07:25:20;;;;;;;16.25;11.60;;;;;;;;;;6300651;28;20047;-68
2022/10/22 07:28:21;;;;;;;18.55;12.15;;;;;;;;;;6305226;28;20109;-70
2022/10/22 07:31:23;;;;;;;17.60;11.98;;;;;;;;;;6301773;28;20290;-69
2022/10/22 07:34:25;;;;;;;16.58;11.68;;;;;;;;;;6301213;28;20907;-69
2022/10/22 07:37:28;;;;;;;18.80;11.55;;;;;;;;;;6301532;28;20118;-69
2022/10/22 07:40:29;;;;;;;15.57;10.93;;;;;;;;;;6302889;28;20097;-67
2022/10/22 07:43:31;;;;;;;18.05;12.73;;;;;;;;;;6301655;28;20061;-67
2022/10/22 07:46:34;;;;;;;17.00;11.68;;;;;;;;;;6302567;28;20094;-68
2022/10/22 07:49:35;;;;;;;16.40;12.00;;;;;;;;;;6304472;28;20051;-68
2022/10/22 07:52:38;;;;;;;15.23;11.88;;;;;;;;;;6306810;28;20052;-68
2022/10/22 07:55:40;;;;;;;17.13;12.70;;;;;;;;;;6303368;28;20121;-68
2022/10/22 07:58:41;;;;;;;16.77;12.82;;;;;;;;;;6305482;28;20266;-67
2022/10/22 08:01:43;;;;;;;16.27;11.10;;;;;;;;;;6305590;28;20302;-66
2022/10/22 08:04:45;;;;;;;21.45;12.75;;;;;;;;;;6306822;28;20048;-66
2022/10/22 08:07:48;;;;;;;16.63;12.43;;;;;;;;;;6303937;28;20200;-67
2022/10/22 08:10:52;;;;;;;17.08;11.73;;;;;;;;;;6302204;28;20052;-67
2022/10/22 08:13:54;;;;;;;20.60;13.13;;;;;;;;;;6308902;28;20052;-66
2022/10/22 08:16:55;;;;;;;17.33;13.20;;;;;;;;;;6304635;28;20085;-67
2022/10/22 08:19:57;;;;;;;19.70;13.02;;;;;;;;;;6304854;28;20094;-66
2022/10/22 08:23:00;;;;;;;17.95;12.50;;;;;;;;;;6302798;28;20056;-67
2022/10/22 08:26:02;;;;;;;19.85;14.27;;;;;;;;;;6301710;28;20094;-66
2022/10/22 08:29:04;;;;;;;19.80;13.70;;;;;;;;;;6300021;28;20068;-67
2022/10/22 08:32:06;;;;;;;17.45;12.82;;;;;;;;;;6307973;28;20402;-67
2022/10/22 08:35:07;;;;;;;20.73;14.20;;;;;;;;;;6311663;28;20094;-67
2022/10/22 08:38:10;;;;;;;17.55;12.93;;;;;;;;;;6300824;28;20044;-67
2022/10/22 08:41:13;;;;;;;21.13;14.30;;;;;;;;;;6301975;28;20320;-67
2022/10/22 08:44:43;;;;;;;20.50;14.35;;;;;;;;;;6304016;28;20312;-69
2022/10/22 08:47:58;;;;;;;18.67;13.80;;;;;;;;;;6292311;28;20056;-69
2022/10/22 08:51:00;;;;;;;19.63;13.68;;;;;;;;;;6310620;28;20284;-69
2022/10/22 08:54:17;;;;;;;25.77;13.88;;;;;;;;;;6310739;28;20115;-69
2022/10/22 08:57:42;;;;;;;19.77;12.90;;;;;;;;;;6311458;28;20221;-68
2022/10/22 09:00:46;;;;;;;18.55;13.88;;;;;;;;;;6307174;28;20095;-69
2022/10/22 09:03:51;;;;;;;23.40;14.20;;;;;;;;;;6307698;28;20053;-70
2022/10/22 09:06:53;;;;;;;23.45;14.15;;;;;;;;;;6304336;28;20348;-69
2022/10/22 09:09:57;;;;;;;17.05;13.75;;;;;;;;;;6309518;28;20340;-69
2022/10/22 09:12:59;;;;;;;18.20;11.95;;;;;;;;;;6306643;28;20137;-69
2022/10/22 09:16:02;;;;;;;16.15;11.60;;;;;;;;;;6305745;28;20210;-69
2022/10/22 09:19:12;;;;;;;17.37;12.90;;;;;;;;;;6308152;28;20271;-71
2022/10/22 09:22:22;;;;;;;16.77;12.95;;;;;;;;;;6308229;28;20430;-65
2022/10/22 09:25:27;;;;;;;15.50;11.80;;;;;;;;;;6307897;28;20090;-64
2022/10/22 09:28:28;;;;;;;19.25;12.23;;;;;;;;;;6311466;28;20335;-66
2022/10/22 09:31:32;;;;;;;16.23;12.05;;;;;;;;;;6316132;28;20048;-66
2022/10/22 09:34:33;;;;;;;18.50;12.23;;;;;;;;;;6313701;28;20056;-67
2022/10/22 09:37:35;;;;;;;14.82;11.63;;;;;;;;;;6308303;28;20503;-65
2022/10/22 09:40:44;;;;;;;19.85;12.00;;;;;;;;;;6312232;28;20263;-71
2022/10/22 09:43:47;;;;;;;20.27;11.90;;;;;;;;;;6310058;28;20206;-63
2022/10/22 09:46:49;;;;;;;18.55;11.88;;;;;;;;;;6315216;28;20093;-62
2022/10/22 09:49:50;;;;;;;20.25;12.27;;;;;;;;;;6314291;28;20056;-64
2022/10/22 09:52:59;;;;;;;20.13;14.20;;;;;;;;;;6313978;28;20048;-65
2022/10/22 09:56:08;;;;;;;19.92;13.38;;;;;;;;;;6314494;28;20616;-66
2022/10/22 09:59:14;;;;;;;18.00;13.20;;;;;;;;;;6308380;28;20056;-67
2022/10/22 10:02:19;;;;;;;20.48;13.52;;;;;;;;;;6306357;28;20060;-69
2022/10/22 10:05:25;;;;;;;19.25;14.90;;;;;;;;;;6309126;28;20315;-68
2022/10/22 10:08:27;;;;;;;18.38;14.40;;;;;;;;;;6312886;28;20208;-68
2022/10/22 10:11:36;;;;;;;15.85;13.05;;;;;;;;;;6314232;28;20607;-69
2022/10/22 10:14:43;;;;;;;19.90;13.15;;;;;;;;;;6311407;28;20101;-69
2022/10/22 10:17:49;;;;;;;18.70;13.30;;;;;;;;;;6310837;28;20568;-70
2022/10/22 10:20:56;;;;;;;22.83;14.35;;;;;;;;;;6312970;28;20090;-69
2022/10/22 10:24:03;;;;;;;21.67;13.13;;;;;;;;;;6309380;28;20052;-68
2022/10/22 10:27:11;;;;;;;22.70;15.15;;;;;;;;;;6313140;28;20319;-66
2022/10/22 10:30:14;;;;;;;19.45;13.90;;;;;;;;;;6314571;28;20063;-63
2022/10/22 10:33:19;;;;;;;;;;;;;;;;;;6308978;28;20048;-62
2022/10/22 10:36:28;;;;;;;19.13;13.48;;;;;;;;;;6308399;28;19998;-64
2022/10/22 10:39:34;;;;;;;19.05;13.70;;;;;;;;;;6309875;28;20081;-66
2022/10/22 10:42:41;;;;;;;18.67;12.77;;;;;;;;;;6311803;28;20048;-66
2022/10/22 10:45:51;;;;;;;21.70;15.18;;;;;;;;;;6306605;28;20044;-65
2022/10/22 10:48:55;;;;;;;23.02;15.43;;;;;;;;;;6309658;28;20044;-65
2022/10/22 10:52:04;;;;;;;21.73;16.65;;;;;;;;;;6312509;28;20300;-66
2022/10/22 10:55:13;;;;;;;23.25;16.50;;;;;;;;;;6309750;28;20112;-66
2022/10/22 10:58:21;;;;;;;20.27;15.18;;;;;;;;;;6308152;28;20044;-67
2022/10/22 11:01:28;;;;;;;20.75;15.50;;;;;;;;;;6312323;28;20060;-68
2022/10/22 11:04:55;;;;;;;20.45;15.23;;;;;;;;;;6312225;28;20060;-69
2022/10/22 11:07:58;;;;;;;23.08;16.02;;;;;;;;;;6305528;28;20057;-70
2022/10/22 11:11:01;;;;;;;22.83;15.85;;;;;;;;;;6306176;28;20040;-68
2022/10/22 11:14:10;;;;;;;18.35;14.07;;;;;;;;;;6306582;28;20105;-73
2022/10/22 11:17:14;;;;;;;21.35;15.02;;;;;;;;;;6305422;28;20090;-71
2022/10/22 11:20:18;;;;;;;23.10;15.68;;;;;;;;;;6310803;28;20040;-72
2022/10/22 11:23:25;;;;;;;20.75;15.23;;;;;;;;;;6302913;28;20044;-68
2022/10/22 11:26:35;;;;;;;22.10;15.50;;;;;;;;;;6302317;28;20067;-68
2022/10/22 11:29:41;;;;;;;19.05;15.18;;;;;;;;;;6309446;28;20040;-71
2022/10/22 11:32:44;;;;;;;21.52;15.95;;;;;;;;;;6309023;28;20052;-70
2022/10/22 11:35:46;;;;;;;22.42;15.35;;;;;;;;;;6304484;28;20079;-69
2022/10/22 11:38:48;;;;;;;20.88;15.20;;;;;;;;;;6308834;28;20129;-70
2022/10/22 11:41:49;;;;;;;26.40;17.67;;;;;;;;;;6311862;28;20060;-69
2022/10/22 11:45:01;;;;;;;22.33;15.20;;;;;;;;;;6311472;28;20048;-77
2022/10/22 11:48:17;;;;;;;25.08;14.95;;;;;;;;;;6310442;28;20438;-74
2022/10/22 11:51:30;;;;;;;24.92;15.80;;;;;;;;;;6313611;28;20056;-75
2022/10/22 11:54:41;;;;;;;18.42;14.70;;;;;;;;;;6310354;28;20081;-73
2022/10/22 11:57:43;;;;;;;23.27;14.55;;;;;;;;;;6311897;28;20236;-82
2022/10/22 12:00:49;;;;;;;20.92;14.75;;;;;;;;;;6307899;28;20049;-77
2022/10/22 12:03:52;;;;;;;22.42;15.27;;;;;;;;;;6302023;28;20064;-76
2022/10/22 12:06:59;;;;;;;21.55;16.20;;;;;;;;;;6309209;28;20047;-78
2022/10/22 12:10:05;;;;;;;21.80;14.55;;;;;;;;;;6313513;28;20056;-76
2022/10/22 12:13:14;;;;;;;17.92;14.02;;;;;;;;;;6313366;28;20060;-77
2022/10/22 12:16:17;;;;;;;24.27;16.38;;;;;;;;;;6312826;28;20060;-76
2022/10/22 12:19:25;;;;;;;21.02;13.35;;;;;;;;;;6308318;28;20060;-74
2022/10/22 12:22:28;;;;;;;17.65;13.02;;;;;;;;;;6314668;28;20052;-75
2022/10/22 12:25:31;;;;;;;14.68;11.15;;;;;;;;;;6312304;28;20320;-75
2022/10/22 12:28:38;;;;;;;18.75;13.02;;;;;;;;;;6317927;28;20338;-71
2022/10/22 12:31:44;;;;;;;16.88;12.40;;;;;;;;;;6317599;28;20057;-75
2022/10/22 12:34:46;;;;;;;16.35;11.57;;;;;;;;;;6317973;28;20524;-75
2022/10/22 12:37:50;;;;;;;14.48;10.50;;;;;;;;;;6313523;28;20385;-75
2022/10/22 12:40:55;;;;;;;14.00;9.52;;;;;;;;;;6309448;28;20412;-76
2022/10/22 12:43:59;;;;;;;14.80;9.70;;;;;;;;;;6307251;28;20047;-76
2022/10/22 12:47:02;;;;;;;12.27;8.27;;;;;;;;;;6309329;28;20064;-75
2022/10/22 12:50:04;;;;;;;14.25;9.85;;;;;;;;;;6313157;28;20040;-76
2022/10/22 12:53:06;;;;;;;15.52;10.18;;;;;;;;;;6312961;28;20189;-72
2022/10/22 12:56:12;;;;;;;13.10;9.10;;;;;;;;;;6306511;28;20124;-71
2022/10/22 12:59:18;;;;;;;11.20;7.32;;;;;;;;;;6307478;28;20057;-72
2022/10/22 13:02:23;;;;;;;12.65;7.53;;;;;;;;;;6307663;28;20045;-70
2022/10/22 13:05:26;;;;;;;10.50;7.78;;;;;;;;;;6307220;28;20076;-67
2022/10/22 13:08:28;;;;;;;10.15;6.80;;;;;;;;;;6303123;28;20295;-70
2022/10/22 13:11:33;;;;;;;17.85;12.35;;;;;;;;;;6310895;28;20131;-68
2022/10/22 13:14:36;;;;;;;13.80;8.07;;;;;;;;;;6309782;28;20048;-69
2022/10/22 13:17:41;;;;;;;10.35;7.53;;;;;;;;;;6308500;28;20051;-69
2022/10/22 13:20:56;;;;;;;10.93;7.70;;;;;;;;;;6308277;28;20140;-70
2022/10/22 13:24:00;;;;;;;14.55;9.27;;;;;;;;;;6309360;28;20355;-69
2022/10/22 13:27:01;;;;;;;16.45;10.88;;;;;;;;;;6307003;28;20109;-67
2022/10/22 13:30:21;;;;;;;14.93;9.95;;;;;;;;;;6310308;28;20061;-67
2022/10/22 13:33:27;;;;;;;12.85;7.95;;;;;;;;;;6300316;28;20052;-68
2022/10/22 13:36:28;;;;;;;12.75;7.60;;;;;;;;;;6310275;28;20052;-68
2022/10/22 13:39:32;;;;;;;17.02;10.38;;;;;;;;;;6307626;28;20098;-69
2022/10/22 13:42:34;;;;;;;13.90;9.98;;;;;;;;;;6307522;28;20239;-67
2022/10/22 13:45:36;;;;;;;;;;;;;;;;;;6306504;28;20058;-73
2022/10/22 13:48:39;;;;;;;17.15;9.57;;;;;;;;;;6304880;28;19924;-67
2022/10/22 13:51:41;;;;;;;13.13;8.70;;;;;;;;;;6305945;28;20062;-65
2022/10/22 13:54:42;;;;;;;14.10;10.18;;;;;;;;;;6303909;28;20370;-64
2022/10/22 13:57:44;;;;;;;11.40;8.40;;;;;;;;;;6304099;28;20356;-66
2022/10/22 14:00:50;;;;;;;11.63;8.68;;;;;;;;;;6302387;28;20094;-65
2022/10/22 14:03:56;;;;;;;16.40;13.45;;;;;;;;;;6302596;28;20255;-65
2022/10/22 14:06:58;;;;;;;12.63;9.45;;;;;;;;;;6303128;28;20050;-66
2022/10/22 14:09:59;;;;;;;10.50;8.23;;;;;;;;;;6301238;28;20339;-66
2022/10/22 14:13:01;;;;;;;14.00;11.15;;;;;;;;;;6305711;28;20282;-66
2022/10/22 14:16:04;;;;;;;14.65;8.93;;;;;;;;;;6306415;28;20197;-65
2022/10/22 14:19:10;;;;;;;11.98;9.70;;;;;;;;;;6302431;28;20045;-65
2022/10/22 14:22:16;;;;;;;12.68;8.73;;;;;;;;;;6310990;28;20048;-66
2022/10/22 14:25:20;;;;;;;15.88;9.88;;;;;;;;;;6310883;28;20232;-66
2022/10/22 14:28:21;;;;;;;13.95;11.38;;;;;;;;;;6311406;28;20056;-65
2022/10/22 14:31:23;;;;;;;16.57;11.20;;;;;;;;;;6311882;28;20102;-65
2022/10/22 14:34:26;;;;;;;14.05;11.80;;;;;;;;;;6312071;28;20172;-65
2022/10/22 14:37:28;;;;;;;16.30;11.25;;;;;;;;;;6312556;28;20060;-65
2022/10/22 14:40:29;;;;;;;15.90;11.40;;;;;;;;;;6314739;28;20056;-66
2022/10/22 14:43:31;;;;;;;16.23;12.48;;;;;;;;;;6314204;28;20048;-67
2022/10/22 14:46:33;;;;;;;14.27;12.05;;;;;;;;;;6311641;28;20072;-67
2022/10/22 14:49:35;;;;;;;14.93;10.45;;;;;;;;;;6315351;28;20059;-67
2022/10/22 14:52:37;;;;;;;13.90;9.68;;;;;;;;;;6314433;28;20052;-66
2022/10/22 14:55:39;;;;;;;15.07;10.93;;;;;;;;;;6315370;28;20319;-66
2022/10/22 14:58:41;;;;;;;11.85;9.75;;;;;;;;;;6307323;28;20049;-65
2022/10/22 15:01:43;;;;;;;18.90;11.90;;;;;;;;;;6306113;28;20149;-67
2022/10/22 15:04:46;;;;;;;22.30;13.90;;;;;;;;;;6303827;28;20333;-67
2022/10/22 15:07:47;;;;;;;;;;;;;;;;;;6308094;28;20206;-67
2022/10/22 15:10:58;;;;;;;14.88;12.45;;;;;;;;;;6302554;28;19931;-67
2022/10/22 15:14:00;;;;;;;15.85;10.75;;;;;;;;;;6305071;28;20195;-66
2022/10/22 15:17:01;;;;;;;15.10;10.93;;;;;;;;;;6305650;28;20052;-65
2022/10/22 15:20:05;;;;;;;12.52;9.68;;;;;;;;;;6304387;28;20291;-65
2022/10/22 15:23:07;;;;;;;23.95;14.88;;;;;;;;;;6305632;28;20354;-65
2022/10/22 15:26:09;;;;;;;21.00;15.00;;;;;;;;;;6303708;28;22509;-65
2022/10/22 15:29:11;;;;;;;20.20;13.80;;;;;;;;;;6304155;28;20070;-69
2022/10/22 15:32:12;;;;;;;19.33;13.15;;;;;;;;;;6306507;28;20324;-67
2022/10/22 15:35:15;;;;;;;22.80;14.13;;;;;;;;;;6305373;28;20048;-67
2022/10/22 15:38:17;;;;;;;43.58;14.02;;;;;;;;;;6302844;28;20051;-67
2022/10/22 15:41:19;;;;;;;36.63;16.48;;;;;;;;;;6303857;28;20102;-67
2022/10/22 15:44:22;;;;;;;19.27;12.75;;;;;;;;;;6304981;28;20045;-67
2022/10/22 15:47:24;;;;;;;21.90;13.57;;;;;;;;;;6303896;28;20052;-64
2022/10/22 15:50:27;;;;;;;27.38;14.48;;;;;;;;;;6307484;28;20048;-64
2022/10/22 15:53:29;;;;;;;22.40;15.52;;;;;;;;;;6305117;28;20060;-70
2022/10/22 15:56:30;;;;;;;18.92;12.90;;;;;;;;;;6302854;28;20041;-68
2022/10/22 15:59:32;;;;;;;20.85;13.65;;;;;;;;;;6302994;28;20746;-75
2022/10/22 16:02:34;;;;;;;22.48;15.35;;;;;;;;;;6300638;28;20093;-84
2022/10/22 16:05:37;;;;;;;23.92;15.13;;;;;;;;;;6303957;28;20320;-72
2022/10/22 16:08:38;;;;;;;25.27;16.90;;;;;;;;;;6303891;28;20264;-70
2022/10/22 16:11:41;;;;;;;24.42;16.73;;;;;;;;;;6306230;28;20044;-66
2022/10/22 16:14:42;;;;;;;24.48;16.30;;;;;;;;;;6305790;28;20431;-69
2022/10/22 16:17:44;;;;;;;22.83;15.88;;;;;;;;;;6303915;28;20060;-70
2022/10/22 16:20:47;;;;;;;27.00;16.95;;;;;;;;;;6302851;28;20336;-69
2022/10/22 16:23:49;;;;;;;21.65;17.13;;;;;;;;;;6305677;28;20071;-71
2022/10/22 16:26:52;;;;;;;24.10;15.18;;;;;;;;;;6303539;28;21097;-71
2022/10/22 16:29:53;;;;;;;26.07;17.47;;;;;;;;;;6303527;28;20063;-70
2022/10/22 16:32:55;;;;;;;24.77;15.95;;;;;;;;;;6300096;28;20060;-71
2022/10/22 16:35:58;;;;;;;26.75;17.58;;;;;;;;;;6307068;28;20173;-71
2022/10/22 16:38:59;;;;;;;22.00;16.08;;;;;;;;;;6304484;28;20086;-71
2022/10/22 16:42:01;;;;;;;21.73;16.80;;;;;;;;;;6299640;28;20052;-66
2022/10/22 16:45:03;;;;;;;23.17;16.45;;;;;;;;;;6308622;28;20233;-72
2022/10/22 16:48:04;;;;;;;28.83;17.85;;;;;;;;;;6305024;28;20113;-72
2022/10/22 16:51:09;;;;;;;23.00;16.80;;;;;;;;;;6303905;28;20102;-71
2022/10/22 16:54:12;;;;;;;20.15;14.52;;;;;;;;;;6303807;28;20146;-72
2022/10/22 16:57:13;;;;;;;30.90;16.70;;;;;;;;;;6302250;28;20328;-72
2022/10/22 17:00:15;;;;;;;25.33;15.75;;;;;;;;;;6303257;28;20236;-72
2022/10/22 17:03:17;;;;;;;24.50;16.48;;;;;;;;;;6308327;28;20331;-73
2022/10/22 17:06:21;;;;;;;28.70;16.95;;;;;;;;;;6306823;28;20056;-70
2022/10/22 17:09:23;;;;;;;28.27;18.15;;;;;;;;;;6307247;28;20072;-71
2022/10/22 17:12:24;;;;;;;25.08;17.27;;;;;;;;;;6304542;28;20316;-71
2022/10/22 17:15:26;;;;;;;28.45;17.08;;;;;;;;;;6306917;28;20352;-73
2022/10/22 17:18:27;;;;;;;24.58;17.20;;;;;;;;;;6307459;28;20202;-73
2022/10/22 17:21:30;;;;;;;23.25;16.08;;;;;;;;;;6306714;28;20051;-72
2022/10/22 17:24:32;;;;;;;23.63;16.15;;;;;;;;;;6309384;28;20044;-70
2022/10/22 17:27:34;;;;;;;22.80;14.82;;;;;;;;;;6305947;28;20262;-72
2022/10/22 17:30:37;;;;;;;26.42;15.95;;;;;;;;;;6308595;28;20060;-66
2022/10/22 17:33:39;;;;;;;22.83;14.80;;;;;;;;;;6309321;28;20345;-72
2022/10/22 17:36:42;;;;;;;21.15;14.73;;;;;;;;;;6305835;28;20106;-73
2022/10/22 17:39:44;;;;;;;;;;;;;;;;;;6310602;28;20260;-72
2022/10/22 17:42:45;;;;;;;25.45;16.38;;;;;;;;;;6311628;28;19954;-71
2022/10/22 17:45:47;;;;;;;23.80;17.13;;;;;;;;;;6302201;28;20106;-70
2022/10/22 17:48:50;;;;;;;21.95;15.48;;;;;;;;;;6303731;28;20224;-68
2022/10/22 17:51:53;;;;;;;26.50;17.97;;;;;;;;;;6311918;28;20047;-72